Time;durP1;ratioP1;P1;durP2;ratioP2;P2;SDS_P1;SDS_P2;PMS_P1;PMS_P2;Temp;Humidity;BMP_temperature;BMP_pressure;BME280_temperature;BME280_humidity;BME280_pressure;Samples;Min_cycle;Max_cycle;Signal;HPM_P1;HPM_P2
2022/04/02 00:00:33;;;;;;;5.13;1.58;;;;;;;;;;4937093;29;20490;-63
2022/04/02 00:02:59;;;;;;;2.70;1.60;;;;;;;;;;4938015;29;20535;-63
2022/04/02 00:05:27;;;;;;;2.15;1.60;;;;;;;;;;4938036;29;20629;-63
2022/04/02 00:07:53;;;;;;;2.47;1.77;;;;;;;;;;4937506;29;20173;-63
2022/04/02 00:10:19;;;;;;;2.83;1.48;;;;;;;;;;4937746;29;20184;-63
2022/04/02 00:12:45;;;;;;;5.53;1.70;;;;;;;;;;4937647;29;20180;-63
2022/04/02 00:15:11;;;;;;;2.95;1.60;;;;;;;;;;4937802;29;20613;-63
2022/04/02 00:17:37;;;;;;;2.55;1.52;;;;;;;;;;4940188;29;20189;-64
2022/04/02 00:20:04;;;;;;;3.75;1.70;;;;;;;;;;4937410;29;20175;-63
2022/04/02 00:22:30;;;;;;;3.15;1.60;;;;;;;;;;4936798;29;20173;-63
2022/04/02 00:24:56;;;;;;;2.78;1.88;;;;;;;;;;4937044;29;20165;-63
2022/04/02 00:27:22;;;;;;;2.15;1.50;;;;;;;;;;4936742;29;20257;-63
2022/04/02 00:29:48;;;;;;;3.58;1.80;;;;;;;;;;4936848;29;20173;-63
2022/04/02 00:32:14;;;;;;;2.22;1.40;;;;;;;;;;4937488;29;20229;-63
2022/04/02 00:34:40;;;;;;;3.38;1.65;;;;;;;;;;4936929;29;20173;-63
2022/04/02 00:37:07;;;;;;;3.00;1.88;;;;;;;;;;4936799;29;20184;-63
2022/04/02 00:39:32;;;;;;;5.30;1.67;;;;;;;;;;4936700;29;20191;-63
2022/04/02 00:41:58;;;;;;;2.47;1.70;;;;;;;;;;4936539;29;20661;-62
2022/04/02 00:44:27;;;;;;;2.28;1.58;;;;;;;;;;4936700;29;20208;-63
2022/04/02 00:46:54;;;;;;;1.90;1.30;;;;;;;;;;4936875;29;20657;-63
2022/04/02 00:49:20;;;;;;;2.45;1.67;;;;;;;;;;4936756;29;20620;-63
2022/04/02 00:51:46;;;;;;;3.08;2.33;;;;;;;;;;4936534;29;20207;-63
2022/04/02 00:54:16;;;;;;;3.85;1.77;;;;;;;;;;4935524;29;20192;-63
2022/04/02 00:56:42;;;;;;;2.45;1.67;;;;;;;;;;4936515;29;20281;-63
2022/04/02 00:59:09;;;;;;;3.38;1.65;;;;;;;;;;4936690;29;20169;-63
2022/04/02 01:01:35;;;;;;;3.25;1.27;;;;;;;;;;4936614;29;20177;-63
2022/04/02 01:04:02;;;;;;;1.98;1.60;;;;;;;;;;4936454;29;20208;-63
2022/04/02 01:06:28;;;;;;;2.35;1.80;;;;;;;;;;4936690;29;20173;-63
2022/04/02 01:08:54;;;;;;;3.42;1.60;;;;;;;;;;4936494;29;20241;-63
2022/04/02 01:11:20;;;;;;;2.35;1.63;;;;;;;;;;4936263;29;20211;-63
2022/04/02 01:13:46;;;;;;;3.80;1.80;;;;;;;;;;4936634;29;20204;-63
2022/04/02 01:16:12;;;;;;;2.25;1.77;;;;;;;;;;4936101;29;20209;-64
2022/04/02 01:18:38;;;;;;;2.53;1.80;;;;;;;;;;4936600;29;20165;-63
2022/04/02 01:21:04;;;;;;;9.05;6.80;;;;;;;;;;4936200;29;20180;-63
2022/04/02 01:23:30;;;;;;;3.17;1.90;;;;;;;;;;4936107;29;20288;-64
2022/04/02 01:25:57;;;;;;;3.42;1.63;;;;;;;;;;4936090;29;20189;-63
2022/04/02 01:28:23;;;;;;;3.85;1.83;;;;;;;;;;4936504;29;20257;-63
2022/04/02 01:30:49;;;;;;;4.18;1.90;;;;;;;;;;4936089;29;20645;-63
2022/04/02 01:33:15;;;;;;;4.68;1.88;;;;;;;;;;4936016;29;20173;-64
2022/04/02 01:35:41;;;;;;;2.63;1.73;;;;;;;;;;4936085;29;20173;-63
2022/04/02 01:38:07;;;;;;;4.35;1.80;;;;;;;;;;4936166;29;20255;-63
2022/04/02 01:40:33;;;;;;;2.72;1.90;;;;;;;;;;4936219;29;20214;-63
2022/04/02 01:42:59;;;;;;;5.50;1.75;;;;;;;;;;4936255;29;20196;-64
2022/04/02 01:45:25;;;;;;;3.33;1.60;;;;;;;;;;4947139;29;20170;-64
2022/04/02 01:47:53;;;;;;;3.78;1.70;;;;;;;;;;4938162;29;20169;-64
2022/04/02 01:50:19;;;;;;;1.58;1.25;;;;;;;;;;4936757;29;20177;-63
2022/04/02 01:52:45;;;;;;;1.77;1.40;;;;;;;;;;4939452;29;20187;-63
2022/04/02 01:55:11;;;;;;;2.97;1.70;;;;;;;;;;4939540;29;20256;-64
2022/04/02 01:57:37;;;;;;;2.75;1.38;;;;;;;;;;4939343;29;20541;-63
2022/04/02 02:00:05;;;;;;;1.95;1.35;;;;;;;;;;4939793;29;20185;-64
2022/04/02 02:02:31;;;;;;;3.55;1.50;;;;;;;;;;4939599;29;20225;-64
2022/04/02 02:04:57;;;;;;;3.53;1.70;;;;;;;;;;4939474;29;20169;-63
2022/04/02 02:07:23;;;;;;;3.15;1.63;;;;;;;;;;4939556;29;20173;-63
2022/04/02 02:09:49;;;;;;;2.50;1.70;;;;;;;;;;4939484;29;20247;-63
2022/04/02 02:12:15;;;;;;;4.75;1.77;;;;;;;;;;4939211;29;20170;-64
2022/04/02 02:14:41;;;;;;;3.63;1.92;;;;;;;;;;4939468;29;20212;-65
2022/04/02 02:17:07;;;;;;;3.17;1.65;;;;;;;;;;4939100;29;20637;-64
2022/04/02 02:19:33;;;;;;;3.22;2.05;;;;;;;;;;4939140;29;20200;-64
2022/04/02 02:21:59;;;;;;;3.58;2.10;;;;;;;;;;4938898;29;20187;-64
2022/04/02 02:24:25;;;;;;;5.00;2.08;;;;;;;;;;4938928;29;20192;-64
2022/04/02 02:26:51;;;;;;;5.70;2.08;;;;;;;;;;4938761;29;20244;-63
2022/04/02 02:29:17;;;;;;;3.00;1.70;;;;;;;;;;4939152;29;20263;-62
2022/04/02 02:31:43;;;;;;;3.88;1.90;;;;;;;;;;4939037;29;20184;-63
2022/04/02 02:36:54;;;;;;;3.30;1.80;;;;;;;;;;4938913;29;20542;-64
2022/04/02 02:39:20;;;;;;;3.67;2.15;;;;;;;;;;4938718;29;20665;-64
2022/04/02 02:41:46;;;;;;;3.50;2.25;;;;;;;;;;4938667;29;20227;-65
2022/04/02 02:44:11;;;;;;;4.38;2.08;;;;;;;;;;4938724;29;20634;-64
2022/04/02 02:46:37;;;;;;;4.35;1.88;;;;;;;;;;4938707;29;20169;-64
2022/04/02 02:49:03;;;;;;;4.13;1.95;;;;;;;;;;4938644;29;20173;-64
2022/04/02 02:51:29;;;;;;;4.50;1.95;;;;;;;;;;4938925;29;20177;-65
2022/04/02 02:53:55;;;;;;;2.53;1.80;;;;;;;;;;4939434;29;20192;-65
2022/04/02 02:56:22;;;;;;;4.90;2.28;;;;;;;;;;4938994;29;20620;-64
2022/04/02 02:58:47;;;;;;;3.38;2.00;;;;;;;;;;4938699;29;20169;-64
2022/04/02 03:01:13;;;;;;;3.03;1.63;;;;;;;;;;4937712;29;20180;-64
2022/04/02 03:03:39;;;;;;;3.17;1.52;;;;;;;;;;4937606;29;20212;-65
2022/04/02 03:06:05;;;;;;;3.35;1.90;;;;;;;;;;4938701;29;20175;-63
2022/04/02 03:08:31;;;;;;;3.00;2.10;;;;;;;;;;4939038;29;20177;-65
2022/04/02 03:10:58;;;;;;;3.03;1.73;;;;;;;;;;4937624;29;20531;-63
2022/04/02 03:13:24;;;;;;;4.60;2.10;;;;;;;;;;4938651;29;20181;-64
2022/04/02 03:15:51;;;;;;;2.15;1.75;;;;;;;;;;4939148;29;20175;-63
2022/04/02 03:18:17;;;;;;;2.58;1.67;;;;;;;;;;4938302;29;20530;-65
2022/04/02 03:20:43;;;;;;;5.60;2.03;;;;;;;;;;4938522;29;20173;-64
2022/04/02 03:23:09;;;;;;;3.10;1.83;;;;;;;;;;4938287;29;20189;-64
2022/04/02 03:25:36;;;;;;;3.38;1.92;;;;;;;;;;4938161;29;20598;-65
2022/04/02 03:28:02;;;;;;;2.65;1.80;;;;;;;;;;4938301;29;20192;-65
2022/04/02 03:30:28;;;;;;;5.53;1.92;;;;;;;;;;4938180;29;20161;-65
2022/04/02 03:32:54;;;;;;;2.03;1.58;;;;;;;;;;4937015;29;20617;-64
2022/04/02 03:35:20;;;;;;;3.35;1.95;;;;;;;;;;4938212;29;20169;-64
2022/04/02 03:37:48;;;;;;;5.15;2.03;;;;;;;;;;4938142;29;20228;-64
2022/04/02 03:40:16;;;;;;;2.60;2.05;;;;;;;;;;4938308;29;20177;-64
2022/04/02 03:42:44;;;;;;;5.05;2.20;;;;;;;;;;4938416;29;20272;-64
2022/04/02 03:45:10;;;;;;;3.03;2.28;;;;;;;;;;4938529;29;20183;-65
2022/04/02 03:47:36;;;;;;;5.20;1.98;;;;;;;;;;4938036;29;20179;-64
2022/04/02 03:50:03;;;;;;;5.35;2.47;;;;;;;;;;4938163;29;20161;-64
2022/04/02 03:52:29;;;;;;;3.10;2.15;;;;;;;;;;4938115;29;20180;-64
2022/04/02 03:54:55;;;;;;;2.50;2.10;;;;;;;;;;4937785;29;20207;-64
2022/04/02 03:57:21;;;;;;;4.38;2.53;;;;;;;;;;4938129;29;20196;-64
2022/04/02 03:59:47;;;;;;;4.03;2.38;;;;;;;;;;4937299;29;20196;-64
2022/04/02 04:02:13;;;;;;;2.88;2.33;;;;;;;;;;4937873;29;20633;-65
2022/04/02 04:04:39;;;;;;;4.75;2.63;;;;;;;;;;4937350;29;20215;-65
2022/04/02 04:07:06;;;;;;;4.85;2.53;;;;;;;;;;4937986;29;20176;-65
2022/04/02 04:09:32;;;;;;;4.75;1.98;;;;;;;;;;4937543;29;20165;-65
2022/04/02 04:11:58;;;;;;;4.63;2.42;;;;;;;;;;4937591;29;20213;-65
2022/04/02 04:14:25;;;;;;;4.05;2.40;;;;;;;;;;4936931;29;20180;-65
2022/04/02 04:16:51;;;;;;;3.05;2.17;;;;;;;;;;4937317;29;20199;-64
2022/04/02 04:19:17;;;;;;;4.55;2.25;;;;;;;;;;4937447;29;20177;-64
2022/04/02 04:21:44;;;;;;;3.38;1.70;;;;;;;;;;4937104;29;20256;-64
2022/04/02 04:24:10;;;;;;;3.78;2.72;;;;;;;;;;4937589;29;20193;-64
2022/04/02 04:26:37;;;;;;;4.90;2.45;;;;;;;;;;4937104;29;20617;-64
2022/04/02 04:29:03;;;;;;;4.03;2.10;;;;;;;;;;4936369;29;20184;-64
2022/04/02 04:31:29;;;;;;;3.30;1.98;;;;;;;;;;4937533;29;20172;-64
2022/04/02 04:33:55;;;;;;;5.28;2.40;;;;;;;;;;4937439;29;20624;-64
2022/04/02 04:36:22;;;;;;;3.75;1.75;;;;;;;;;;4937425;29;20186;-64
2022/04/02 04:38:48;;;;;;;4.45;2.30;;;;;;;;;;4937547;29;20200;-64
2022/04/02 04:41:14;;;;;;;4.40;2.00;;;;;;;;;;4937253;29;20165;-64
2022/04/02 04:43:41;;;;;;;3.67;2.05;;;;;;;;;;4936846;28;20188;-65
2022/04/02 04:46:08;;;;;;;4.03;2.33;;;;;;;;;;4937384;29;20619;-64
2022/04/02 04:48:35;;;;;;;4.07;2.42;;;;;;;;;;4936972;29;20169;-64
2022/04/02 04:51:01;;;;;;;2.78;1.98;;;;;;;;;;4936913;29;20173;-64
2022/04/02 04:53:27;;;;;;;3.80;1.98;;;;;;;;;;4936985;29;20173;-64
2022/04/02 04:55:53;;;;;;;3.83;2.50;;;;;;;;;;4937128;29;20631;-64
2022/04/02 04:58:19;;;;;;;4.35;2.20;;;;;;;;;;4936698;29;20277;-64
2022/04/02 05:00:45;;;;;;;5.57;3.00;;;;;;;;;;4937059;29;20169;-64
2022/04/02 05:03:12;;;;;;;4.13;2.20;;;;;;;;;;4937337;29;20197;-64
2022/04/02 05:05:38;;;;;;;3.67;2.20;;;;;;;;;;4938663;29;20165;-64
2022/04/02 05:08:05;;;;;;;3.70;2.30;;;;;;;;;;4936883;29;20169;-64
2022/04/02 05:10:31;;;;;;;4.47;2.20;;;;;;;;;;4936501;29;20200;-64
2022/04/02 05:12:57;;;;;;;5.43;2.50;;;;;;;;;;4936353;29;20177;-64
2022/04/02 05:15:22;;;;;;;2.58;1.98;;;;;;;;;;4936298;29;20177;-64
2022/04/02 05:17:48;;;;;;;2.75;1.88;;;;;;;;;;4936735;29;20188;-64
2022/04/02 05:20:14;;;;;;;4.47;1.90;;;;;;;;;;4936121;29;20675;-64
2022/04/02 05:22:41;;;;;;;4.60;2.13;;;;;;;;;;4936051;29;20235;-64
2022/04/02 05:25:07;;;;;;;3.40;1.80;;;;;;;;;;4936513;29;20157;-64
2022/04/02 05:27:33;;;;;;;2.22;1.70;;;;;;;;;;4940123;29;20529;-64
2022/04/02 05:30:00;;;;;;;2.92;1.60;;;;;;;;;;4940228;29;20262;-64
2022/04/02 05:32:28;;;;;;;3.78;1.63;;;;;;;;;;4940087;29;20628;-64
2022/04/02 05:34:54;;;;;;;2.78;1.85;;;;;;;;;;4940209;29;20698;-64
2022/04/02 05:37:20;;;;;;;3.22;1.70;;;;;;;;;;4939873;29;20177;-64
2022/04/02 05:39:45;;;;;;;2.00;1.33;;;;;;;;;;4940092;29;20260;-64
2022/04/02 05:42:12;;;;;;;2.17;1.60;;;;;;;;;;4939842;29;20574;-64
2022/04/02 05:44:38;;;;;;;2.15;1.50;;;;;;;;;;4939742;29;20275;-64
2022/04/02 05:47:04;;;;;;;4.18;2.05;;;;;;;;;;4939650;29;20173;-64
2022/04/02 05:49:31;;;;;;;4.07;1.98;;;;;;;;;;4939681;29;20204;-64
2022/04/02 05:51:57;;;;;;;4.05;2.10;;;;;;;;;;4939856;29;20172;-64
2022/04/02 05:54:23;;;;;;;2.47;1.48;;;;;;;;;;4939784;29;20208;-64
2022/04/02 05:56:49;;;;;;;2.85;1.33;;;;;;;;;;4939499;29;20200;-65
2022/04/02 05:59:15;;;;;;;4.47;1.90;;;;;;;;;;4938391;29;20176;-64
2022/04/02 06:01:41;;;;;;;5.18;1.70;;;;;;;;;;4939834;29;20177;-64
2022/04/02 06:04:07;;;;;;;3.90;1.67;;;;;;;;;;4939246;29;20681;-64
2022/04/02 06:06:34;;;;;;;5.00;1.70;;;;;;;;;;4939640;29;20180;-64
2022/04/02 06:08:59;;;;;;;3.08;1.52;;;;;;;;;;4939657;29;20184;-64
2022/04/02 06:11:25;;;;;;;2.10;1.67;;;;;;;;;;4939264;29;20502;-65
2022/04/02 06:13:51;;;;;;;3.78;1.67;;;;;;;;;;4939291;29;20188;-64
2022/04/02 06:16:17;;;;;;;5.18;2.42;;;;;;;;;;4939076;29;20177;-65
2022/04/02 06:18:46;;;;;;;5.82;1.92;;;;;;;;;;4939271;29;20192;-65
2022/04/02 06:21:12;;;;;;;2.25;1.40;;;;;;;;;;4938997;29;20661;-65
2022/04/02 06:23:38;;;;;;;2.05;1.52;;;;;;;;;;4937922;29;20272;-65
2022/04/02 06:26:04;;;;;;;3.45;1.70;;;;;;;;;;4938997;29;20641;-65
2022/04/02 06:28:30;;;;;;;3.05;1.73;;;;;;;;;;4939201;29;20173;-64
2022/04/02 06:30:56;;;;;;;3.50;1.65;;;;;;;;;;4939352;29;20173;-64
2022/04/02 06:33:22;;;;;;;3.33;1.50;;;;;;;;;;4938931;29;20183;-65
2022/04/02 06:35:48;;;;;;;2.13;1.55;;;;;;;;;;4939162;29;20454;-65
2022/04/02 06:38:14;;;;;;;2.67;1.60;;;;;;;;;;4939119;29;20173;-65
2022/04/02 06:40:40;;;;;;;2.42;1.48;;;;;;;;;;4939013;29;20187;-65
2022/04/02 06:43:06;;;;;;;4.30;1.35;;;;;;;;;;4937819;29;20279;-65
2022/04/02 06:45:32;;;;;;;2.80;1.45;;;;;;;;;;4938866;29;20598;-65
2022/04/02 06:47:58;;;;;;;2.95;1.55;;;;;;;;;;4938766;29;20559;-65
2022/04/02 06:50:24;;;;;;;2.65;1.50;;;;;;;;;;4938598;29;20175;-65
2022/04/02 06:52:50;;;;;;;2.65;1.50;;;;;;;;;;4938509;29;20187;-64
2022/04/02 06:55:16;;;;;;;4.32;1.70;;;;;;;;;;4938677;29;20196;-65
2022/04/02 06:57:43;;;;;;;4.00;1.48;;;;;;;;;;4938532;29;20210;-65
2022/04/02 07:00:10;;;;;;;6.47;1.80;;;;;;;;;;4938321;29;20177;-65
2022/04/02 07:02:36;;;;;;;2.22;1.40;;;;;;;;;;4938576;29;20184;-65
2022/04/02 07:05:02;;;;;;;2.35;1.30;;;;;;;;;;4938632;29;20170;-65
2022/04/02 07:07:28;;;;;;;1.98;1.52;;;;;;;;;;4938344;29;20169;-65
2022/04/02 07:09:54;;;;;;;3.10;1.48;;;;;;;;;;4938107;29;20474;-65
2022/04/02 07:12:20;;;;;;;3.45;1.67;;;;;;;;;;4938168;29;20173;-65
2022/04/02 07:14:46;;;;;;;3.17;1.10;;;;;;;;;;4938344;29;20165;-65
2022/04/02 07:17:13;;;;;;;1.90;1.15;;;;;;;;;;4938028;29;20529;-65
2022/04/02 07:19:39;;;;;;;2.40;1.10;;;;;;;;;;4938145;29;20533;-64
2022/04/02 07:22:08;;;;;;;2.20;1.45;;;;;;;;;;4938703;29;20232;-65
2022/04/02 07:24:34;;;;;;;2.17;1.40;;;;;;;;;;4937964;29;20188;-64
2022/04/02 07:27:02;;;;;;;4.88;1.52;;;;;;;;;;4938238;29;20169;-65
2022/04/02 07:29:28;;;;;;;1.75;1.30;;;;;;;;;;4938449;29;20231;-65
2022/04/02 07:31:54;;;;;;;1.73;1.02;;;;;;;;;;4938651;29;20172;-65
2022/04/02 07:34:21;;;;;;;1.45;1.10;;;;;;;;;;4938422;29;20621;-65
2022/04/02 07:36:56;;;;;;;1.70;1.13;;;;;;;;;;4938438;29;20169;-64
2022/04/02 07:39:32;;;;;;;1.75;1.20;;;;;;;;;;4938266;29;20245;-65
2022/04/02 07:42:07;;;;;;;1.30;1.20;;;;;;;;;;4938027;29;20173;-64
2022/04/02 07:44:42;;;;;;;2.63;1.10;;;;;;;;;;4938073;29;20220;-64
2022/04/02 07:47:11;;;;;;;1.67;1.23;;;;;;;;;;4937742;29;20329;-64
2022/04/02 07:49:39;;;;;;;2.63;1.40;;;;;;;;;;4937134;29;20175;-64
2022/04/02 07:52:05;;;;;;;1.92;1.20;;;;;;;;;;4937859;29;20173;-63
2022/04/02 07:54:34;;;;;;;2.33;1.10;;;;;;;;;;4937709;29;20285;-64
2022/04/02 07:57:02;;;;;;;1.48;1.17;;;;;;;;;;4937792;29;20169;-64
2022/04/02 07:59:35;;;;;;;1.20;1.10;;;;;;;;;;4937312;29;20255;-64
2022/04/02 08:02:01;;;;;;;3.08;1.90;;;;;;;;;;4937397;29;20568;-64
2022/04/02 08:04:28;;;;;;;3.03;1.20;;;;;;;;;;4937656;29;20519;-64
2022/04/02 08:06:54;;;;;;;2.10;1.50;;;;;;;;;;4937306;29;20177;-64
2022/04/02 08:09:20;;;;;;;4.13;1.30;;;;;;;;;;4937394;29;20208;-64
2022/04/02 08:11:48;;;;;;;1.48;1.10;;;;;;;;;;4937263;29;20188;-64
2022/04/02 08:14:15;;;;;;;2.55;1.15;;;;;;;;;;4937361;29;20164;-64
2022/04/02 08:16:42;;;;;;;2.55;1.35;;;;;;;;;;4937257;29;20527;-64
2022/04/02 08:19:09;;;;;;;1.63;1.13;;;;;;;;;;4936975;29;20692;-64
2022/04/02 08:21:35;;;;;;;2.50;1.20;;;;;;;;;;4936870;29;20173;-64
2022/04/02 08:24:02;;;;;;;1.92;1.30;;;;;;;;;;4937049;29;20312;-64
2022/04/02 08:26:38;;;;;;;2.13;1.13;;;;;;;;;;4936998;29;20263;-64
2022/04/02 08:29:09;;;;;;;2.55;1.08;;;;;;;;;;4937240;29;20203;-64
2022/04/02 08:31:52;;;;;;;2.28;1.02;;;;;;;;;;4936986;29;20215;-64
2022/04/02 08:34:37;;;;;;;2.65;1.20;;;;;;;;;;4935917;29;20585;-64
2022/04/02 08:37:15;;;;;;;1.77;1.10;;;;;;;;;;4936989;29;20208;-64
2022/04/02 08:39:41;;;;;;;1.38;1.20;;;;;;;;;;4937134;29;20173;-64
2022/04/02 08:42:25;;;;;;;2.00;1.05;;;;;;;;;;4936812;29;20508;-64
2022/04/02 08:45:10;;;;;;;1.55;0.70;;;;;;;;;;4936865;29;20331;-65
2022/04/02 08:47:56;;;;;;;1.92;1.00;;;;;;;;;;4936867;29;20165;-63
2022/04/02 08:50:29;;;;;;;2.67;1.15;;;;;;;;;;4936571;29;20161;-65
2022/04/02 08:53:08;;;;;;;1.40;1.08;;;;;;;;;;4936628;29;20158;-64
2022/04/02 08:55:37;;;;;;;3.97;1.33;;;;;;;;;;4936874;29;20176;-63
2022/04/02 08:58:09;;;;;;;1.35;1.05;;;;;;;;;;4936918;29;20205;-63
2022/04/02 09:00:37;;;;;;;1.63;1.13;;;;;;;;;;4935892;29;20216;-63
2022/04/02 09:03:22;;;;;;;2.92;1.45;;;;;;;;;;4936731;29;20228;-64
2022/04/02 09:06:14;;;;;;;1.48;1.00;;;;;;;;;;4936966;29;20262;-63
2022/04/02 09:08:59;;;;;;;3.90;1.25;;;;;;;;;;4929031;29;20204;-64
2022/04/02 09:11:34;;;;;;;1.33;0.90;;;;;;;;;;4936488;29;20569;-64
2022/04/02 09:14:12;;;;;;;4.13;1.30;;;;;;;;;;4936313;29;20169;-63
2022/04/02 09:16:48;;;;;;;1.45;1.08;;;;;;;;;;4936289;29;20188;-63
2022/04/02 09:19:17;;;;;;;2.83;0.95;;;;;;;;;;4936655;29;20226;-63
2022/04/02 09:21:46;;;;;;;1.55;0.85;;;;;;;;;;4936281;29;20692;-63
2022/04/02 09:24:15;;;;;;;1.52;0.93;;;;;;;;;;4936695;29;20235;-65
2022/04/02 09:26:47;;;;;;;2.08;0.90;;;;;;;;;;4936774;29;20187;-64
2022/04/02 09:29:16;;;;;;;1.95;0.85;;;;;;;;;;4936693;29;20660;-63
2022/04/02 09:31:45;;;;;;;2.65;1.10;;;;;;;;;;4936572;29;20229;-63
2022/04/02 09:34:28;;;;;;;1.02;0.93;;;;;;;;;;4936322;29;20177;-65
2022/04/02 09:37:03;;;;;;;3.08;1.10;;;;;;;;;;4936219;29;20220;-63
2022/04/02 09:39:35;;;;;;;2.65;1.00;;;;;;;;;;4935513;29;20495;-64
2022/04/02 09:42:19;;;;;;;1.20;1.00;;;;;;;;;;4936444;29;20212;-63
2022/04/02 09:44:51;;;;;;;1.70;0.70;;;;;;;;;;4936579;29;20576;-64
2022/04/02 09:47:36;;;;;;;4.00;0.80;;;;;;;;;;4936585;29;20176;-64
2022/04/02 09:50:08;;;;;;;2.20;0.80;;;;;;;;;;4937121;29;20197;-62
2022/04/02 09:52:35;;;;;;;2.35;1.15;;;;;;;;;;4937318;29;20169;-64
2022/04/02 09:55:09;;;;;;;2.50;0.90;;;;;;;;;;4937198;29;20478;-64
2022/04/02 09:57:44;;;;;;;3.50;1.02;;;;;;;;;;4937541;29;20508;-64
2022/04/02 10:00:10;;;;;;;1.27;0.65;;;;;;;;;;4938594;29;20169;-64
2022/04/02 10:02:44;;;;;;;1.20;0.80;;;;;;;;;;4945432;29;20183;-64
2022/04/02 10:05:14;;;;;;;2.10;0.90;;;;;;;;;;4948579;29;20590;-64
2022/04/02 10:08:04;;;;;;;2.05;1.27;;;;;;;;;;4943247;29;20209;-64
2022/04/02 10:10:30;;;;;;;1.83;1.02;;;;;;;;;;4937630;29;20523;-64
2022/04/02 10:12:57;;;;;;;2.92;0.93;;;;;;;;;;4940191;29;20215;-64
2022/04/02 10:15:23;;;;;;;1.05;0.80;;;;;;;;;;4941719;29;20196;-64
2022/04/02 10:17:51;;;;;;;0.90;0.70;;;;;;;;;;4944950;29;20199;-64
2022/04/02 10:20:19;;;;;;;2.70;1.58;;;;;;;;;;4951419;29;20173;-65
2022/04/02 10:22:46;;;;;;;4.40;1.38;;;;;;;;;;4951547;29;20172;-65
2022/04/02 10:25:14;;;;;;;2.00;0.98;;;;;;;;;;4952682;29;20605;-64
2022/04/02 10:27:42;;;;;;;1.73;0.85;;;;;;;;;;4952510;29;20169;-64
2022/04/02 10:30:08;;;;;;;2.85;0.85;;;;;;;;;;4952078;29;20205;-65
2022/04/02 10:32:45;;;;;;;2.10;0.93;;;;;;;;;;4952450;29;20180;-64
2022/04/02 10:35:13;;;;;;;1.17;0.90;;;;;;;;;;4953083;29;20217;-64
2022/04/02 10:37:40;;;;;;;1.90;1.05;;;;;;;;;;4952667;29;20181;-63
2022/04/02 10:40:07;;;;;;;2.92;0.88;;;;;;;;;;4952874;29;20169;-64
2022/04/02 10:42:34;;;;;;;1.05;0.85;;;;;;;;;;4953903;29;20173;-64
2022/04/02 10:45:03;;;;;;;1.50;1.05;;;;;;;;;;4955080;29;20192;-64
2022/04/02 10:47:30;;;;;;;1.80;0.93;;;;;;;;;;4954797;29;20579;-64
2022/04/02 10:50:03;;;;;;;3.03;1.38;;;;;;;;;;4950485;29;20543;-65
2022/04/02 10:52:29;;;;;;;1.98;0.95;;;;;;;;;;4946162;29;20169;-65
2022/04/02 10:54:56;;;;;;;2.40;1.13;;;;;;;;;;4948085;29;20172;-64
2022/04/02 10:57:22;;;;;;;1.65;0.80;;;;;;;;;;4941788;29;20184;-64
2022/04/02 10:59:48;;;;;;;1.65;1.10;;;;;;;;;;4951096;29;20232;-64
2022/04/02 11:02:24;;;;;;;1.88;0.90;;;;;;;;;;4940459;29;20205;-63
2022/04/02 11:04:56;;;;;;;2.90;0.85;;;;;;;;;;4938696;29;20224;-63
2022/04/02 11:07:29;;;;;;;3.65;0.90;;;;;;;;;;4938920;29;20154;-65
2022/04/02 11:09:58;;;;;;;2.00;0.98;;;;;;;;;;4939071;29;20157;-63
2022/04/02 11:12:39;;;;;;;3.92;1.30;;;;;;;;;;4938705;29;20161;-64
2022/04/02 11:15:11;;;;;;;1.58;1.00;;;;;;;;;;4938345;29;20605;-64
2022/04/02 11:17:38;;;;;;;3.40;0.90;;;;;;;;;;4937893;29;20203;-65
2022/04/02 11:20:07;;;;;;;2.10;1.08;;;;;;;;;;4938394;29;20169;-64
2022/04/02 11:22:49;;;;;;;2.50;1.05;;;;;;;;;;4937709;29;20184;-63
2022/04/02 11:25:35;;;;;;;3.53;1.00;;;;;;;;;;4937886;29;20275;-64
2022/04/02 11:28:18;;;;;;;1.48;1.00;;;;;;;;;;4937603;29;20188;-64
2022/04/02 11:30:47;;;;;;;3.17;1.05;;;;;;;;;;4937778;29;20248;-64
2022/04/02 11:33:18;;;;;;;1.35;0.70;;;;;;;;;;4937668;29;20521;-63
2022/04/02 11:35:53;;;;;;;1.05;0.73;;;;;;;;;;4937552;29;20173;-64
2022/04/02 11:38:20;;;;;;;1.83;0.80;;;;;;;;;;4937713;29;20208;-64
2022/04/02 11:41:15;;;;;;;2.65;0.82;;;;;;;;;;4937880;29;20209;-63
2022/04/02 11:43:42;;;;;;;2.53;1.10;;;;;;;;;;4932920;29;20213;-64
2022/04/02 11:46:15;;;;;;;0.90;0.55;;;;;;;;;;4937588;29;20612;-64
2022/04/02 11:48:52;;;;;;;2.78;1.00;;;;;;;;;;4937686;29;20248;-62
2022/04/02 11:51:24;;;;;;;1.77;1.00;;;;;;;;;;4937765;29;20172;-63
2022/04/02 11:53:50;;;;;;;1.05;0.73;;;;;;;;;;4937959;29;20168;-63
2022/04/02 11:56:24;;;;;;;2.40;0.90;;;;;;;;;;4938068;29;20561;-64
2022/04/02 11:58:51;;;;;;;1.75;1.00;;;;;;;;;;4937425;29;20173;-64
2022/04/02 12:01:20;;;;;;;4.40;0.98;;;;;;;;;;4937812;29;20433;-64
2022/04/02 12:03:46;;;;;;;1.27;0.80;;;;;;;;;;4938270;29;20197;-64
2022/04/02 12:06:12;;;;;;;1.25;0.80;;;;;;;;;;4937364;29;20173;-64
2022/04/02 12:08:43;;;;;;;1.23;0.70;;;;;;;;;;4937304;29;20171;-64
2022/04/02 12:11:09;;;;;;;1.55;0.77;;;;;;;;;;4937272;29;20236;-64
2022/04/02 12:13:35;;;;;;;2.65;0.90;;;;;;;;;;4937252;29;20173;-64
2022/04/02 12:16:04;;;;;;;0.95;0.85;;;;;;;;;;4937150;29;20183;-64
2022/04/02 12:18:30;;;;;;;0.85;0.68;;;;;;;;;;4936773;29;20192;-64
2022/04/02 12:21:04;;;;;;;1.40;0.60;;;;;;;;;;4937329;29;20246;-64
2022/04/02 12:23:31;;;;;;;0.68;0.57;;;;;;;;;;4937040;29;20201;-63
2022/04/02 12:25:58;;;;;;;0.77;0.60;;;;;;;;;;4936885;29;20622;-64
2022/04/02 12:28:24;;;;;;;2.13;0.60;;;;;;;;;;4937005;29;20165;-64
2022/04/02 12:30:51;;;;;;;1.92;0.63;;;;;;;;;;4936929;29;20656;-63
2022/04/02 12:33:21;;;;;;;0.95;0.65;;;;;;;;;;4936987;29;20248;-63
2022/04/02 12:36:00;;;;;;;1.88;1.00;;;;;;;;;;4936956;29;20255;-63
2022/04/02 12:38:28;;;;;;;2.70;0.93;;;;;;;;;;4936668;29;20671;-64
2022/04/02 12:40:56;;;;;;;1.42;0.80;;;;;;;;;;4936663;29;20598;-63
2022/04/02 12:43:34;;;;;;;1.90;0.60;;;;;;;;;;4936947;29;20516;-63
2022/04/02 12:46:01;;;;;;;2.45;1.00;;;;;;;;;;4936703;29;20223;-63
2022/04/02 12:48:40;;;;;;;1.08;0.73;;;;;;;;;;4935535;29;20180;-64
2022/04/02 12:51:05;;;;;;;2.33;0.88;;;;;;;;;;4936678;29;20165;-64
2022/04/02 12:53:33;;;;;;;1.70;0.77;;;;;;;;;;4936522;29;20554;-64
2022/04/02 12:56:01;;;;;;;0.88;0.60;;;;;;;;;;4936890;29;20181;-64
2022/04/02 12:58:31;;;;;;;1.73;0.80;;;;;;;;;;4936478;29;20632;-64
2022/04/02 13:01:07;;;;;;;3.38;1.15;;;;;;;;;;4936883;29;20232;-64
2022/04/02 13:03:34;;;;;;;2.03;0.40;;;;;;;;;;4936723;29;20187;-64
2022/04/02 13:06:02;;;;;;;1.10;0.77;;;;;;;;;;4937002;29;20523;-64
2022/04/02 13:08:28;;;;;;;1.55;0.90;;;;;;;;;;4936569;29;20165;-64
2022/04/02 13:10:59;;;;;;;3.13;0.88;;;;;;;;;;4936352;29;20171;-64
2022/04/02 13:13:35;;;;;;;2.05;0.95;;;;;;;;;;4936525;29;20219;-64
2022/04/02 13:16:02;;;;;;;1.10;0.63;;;;;;;;;;4936411;29;20700;-64
2022/04/02 13:21:16;;;;;;;2.97;1.00;;;;;;;;;;4936793;29;20171;-64
2022/04/02 13:24:12;;;;;;;0.80;0.77;;;;;;;;;;4936360;29;20197;-64
2022/04/02 13:26:44;;;;;;;0.85;0.70;;;;;;;;;;4936885;29;20161;-64
2022/04/02 13:29:22;;;;;;;3.58;1.00;;;;;;;;;;4936747;29;20177;-64
2022/04/02 13:32:05;;;;;;;0.88;0.70;;;;;;;;;;4936651;29;20178;-64
2022/04/02 13:34:41;;;;;;;3.10;0.80;;;;;;;;;;4936421;29;20192;-64
2022/04/02 13:37:25;;;;;;;0.85;0.65;;;;;;;;;;4936660;29;20264;-63
2022/04/02 13:39:53;;;;;;;2.78;0.90;;;;;;;;;;4936097;29;20188;-64
2022/04/02 13:42:25;;;;;;;1.23;0.55;;;;;;;;;;4936598;29;20177;-64
2022/04/02 13:44:56;;;;;;;2.03;0.73;;;;;;;;;;4936384;29;20196;-63
2022/04/02 13:47:24;;;;;;;2.25;0.95;;;;;;;;;;4938293;29;20157;-64
2022/04/02 13:49:56;;;;;;;1.35;0.82;;;;;;;;;;4940211;29;20504;-64
2022/04/02 13:52:23;;;;;;;2.13;0.80;;;;;;;;;;4939850;29;20166;-63
2022/04/02 13:54:54;;;;;;;0.93;0.80;;;;;;;;;;4940032;29;20169;-64
2022/04/02 13:57:21;;;;;;;1.00;0.70;;;;;;;;;;4940216;29;20205;-64
2022/04/02 14:00:02;;;;;;;0.82;0.60;;;;;;;;;;4940153;29;20179;-64
2022/04/02 14:02:30;;;;;;;2.90;0.70;;;;;;;;;;4939979;29;20177;-63
2022/04/02 14:05:00;;;;;;;1.58;0.65;;;;;;;;;;4939982;29;20233;-64
2022/04/02 14:07:29;;;;;;;1.02;0.60;;;;;;;;;;4940162;29;20157;-64
2022/04/02 14:09:58;;;;;;;1.73;0.88;;;;;;;;;;4939590;29;20173;-64
2022/04/02 14:12:38;;;;;;;0.90;0.55;;;;;;;;;;4939594;29;20170;-65
2022/04/02 14:15:09;;;;;;;1.10;0.70;;;;;;;;;;4939648;29;20204;-64
2022/04/02 14:17:39;;;;;;;1.10;0.82;;;;;;;;;;4939158;29;20651;-64
2022/04/02 14:20:09;;;;;;;1.25;0.82;;;;;;;;;;4939529;29;20177;-64
2022/04/02 14:22:46;;;;;;;2.20;0.70;;;;;;;;;;4939244;29;20173;-64
2022/04/02 14:25:24;;;;;;;1.25;0.70;;;;;;;;;;4939516;29;20558;-64
2022/04/02 14:28:09;;;;;;;1.50;1.00;;;;;;;;;;4939281;29;20161;-64
2022/04/02 14:30:38;;;;;;;1.30;0.90;;;;;;;;;;4939073;29;20240;-64
2022/04/02 14:33:16;;;;;;;2.15;0.80;;;;;;;;;;4939145;29;20180;-64
2022/04/02 14:35:45;;;;;;;1.42;0.82;;;;;;;;;;4939122;29;20149;-64
2022/04/02 14:38:14;;;;;;;3.63;1.10;;;;;;;;;;4938847;29;20173;-64
2022/04/02 14:40:59;;;;;;;2.05;0.80;;;;;;;;;;4939308;29;20248;-63
2022/04/02 14:43:44;;;;;;;3.15;0.80;;;;;;;;;;4939204;29;20193;-64
2022/04/02 14:46:29;;;;;;;1.38;1.02;;;;;;;;;;4938994;29;20251;-64
2022/04/02 14:49:13;;;;;;;2.00;0.80;;;;;;;;;;4939091;29;20169;-64
2022/04/02 14:52:02;;;;;;;4.32;1.02;;;;;;;;;;4939183;29;20257;-64
2022/04/02 14:54:47;;;;;;;1.65;0.73;;;;;;;;;;4939109;29;20185;-63
2022/04/02 14:57:31;;;;;;;2.60;1.17;;;;;;;;;;4939128;29;20156;-63
2022/04/02 15:00:16;;;;;;;0.88;0.88;;;;;;;;;;4938830;29;20172;-65